地図

経路データ

SID SEASON NUMBER BASIN SUBBASIN NAME ISO_TIME NATURE LAT LON WMO_WIND WMO_PRES WMO_AGENCY TRACK_TYPE DIST2LAND LANDFALL IFLAG USA_AGENCY USA_ATCF_ID USA_LAT USA_LON USA_RECORD USA_STATUS USA_WIND USA_PRES USA_SSHS USA_R34_NE USA_R34_SE USA_R34_SW USA_R34_NW USA_R50_NE USA_R50_SE USA_R50_SW USA_R50_NW USA_R64_NE USA_R64_SE USA_R64_SW USA_R64_NW USA_POCI USA_ROCI USA_RMW USA_EYE TOKYO_LAT TOKYO_LON TOKYO_GRADE TOKYO_WIND TOKYO_PRES TOKYO_R50_DIR TOKYO_R50_LONG TOKYO_R50_SHORT TOKYO_R30_DIR TOKYO_R30_LONG TOKYO_R30_SHORT TOKYO_LAND CMA_LAT CMA_LON CMA_CAT CMA_WIND CMA_PRES HKO_LAT HKO_LON HKO_CAT HKO_WIND HKO_PRES NEWDELHI_LAT NEWDELHI_LON NEWDELHI_GRADE NEWDELHI_WIND NEWDELHI_PRES NEWDELHI_CI NEWDELHI_DP NEWDELHI_POCI REUNION_LAT REUNION_LON REUNION_TYPE REUNION_WIND REUNION_PRES REUNION_TNUM REUNION_CI REUNION_RMW REUNION_R34_NE REUNION_R34_SE REUNION_R34_SW REUNION_R34_NW REUNION_R50_NE REUNION_R50_SE REUNION_R50_SW REUNION_R50_NW REUNION_R64_NE REUNION_R64_SE REUNION_R64_SW REUNION_R64_NW BOM_LAT BOM_LON BOM_TYPE BOM_WIND BOM_PRES BOM_TNUM BOM_CI BOM_RMW BOM_R34_NE BOM_R34_SE BOM_R34_SW BOM_R34_NW BOM_R50_NE BOM_R50_SE BOM_R50_SW BOM_R50_NW BOM_R64_NE BOM_R64_SE BOM_R64_SW BOM_R64_NW BOM_ROCI BOM_POCI BOM_EYE BOM_POS_METHOD BOM_PRES_METHOD NADI_LAT NADI_LON NADI_CAT NADI_WIND NADI_PRES WELLINGTON_LAT WELLINGTON_LON WELLINGTON_WIND WELLINGTON_PRES DS824_LAT DS824_LON DS824_STAGE DS824_WIND DS824_PRES TD9636_LAT TD9636_LON TD9636_STAGE TD9636_WIND TD9636_PRES TD9635_LAT TD9635_LON TD9635_WIND TD9635_PRES TD9635_ROCI NEUMANN_LAT NEUMANN_LON NEUMANN_CLASS NEUMANN_WIND NEUMANN_PRES MLC_LAT MLC_LON MLC_CLASS MLC_WIND MLC_PRES USA_GUST BOM_GUST BOM_GUST_PER REUNION_GUST REUNION_GUST_PER USA_SEAHGT USA_SEARAD_NE USA_SEARAD_SE USA_SEARAD_SW USA_SEARAD_NW STORM_SPEED STORM_DIR
1960174N19267 1960 31 NA GM NOT_NAMED 1960-06-22 06:00:00 TS 19.2000 -93.2000 25 hurdat_atl main 85 85 O_____________ hurdat_atl AL011960 19.2000 -93.2000 TD 25 -1 7 315
1960174N19267 1960 31 NA GM NOT_NAMED 1960-06-22 09:00:00 TS 19.4650 -93.4775 main 131 131 P_____________ AL011960 19.4650 -93.4775 TD 25 -1 8 317
1960174N19267 1960 31 NA GM NOT_NAMED 1960-06-22 12:00:00 TS 19.8000 -93.8000 25 hurdat_atl main 167 167 O_____________ hurdat_atl AL011960 19.8000 -93.8000 TD 25 -1 10 320
1960174N19267 1960 31 NA GM NOT_NAMED 1960-06-22 15:00:00 TS 20.2551 -94.1925 main 207 202 P_____________ AL011960 20.2551 -94.1925 TD 25 -1 13 323
1960174N19267 1960 31 NA GM NOT_NAMED 1960-06-22 18:00:00 TS 20.8000 -94.6000 25 hurdat_atl main 212 207 O_____________ hurdat_atl AL011960 20.8000 -94.6000 TD 25 -1 13 327
1960174N19267 1960 31 NA GM NOT_NAMED 1960-06-22 21:00:00 TS 21.3625 -94.9727 main 220 209 P_____________ AL011960 21.3625 -94.9727 TD 27 -1 14 332
1960174N19267 1960 31 NA GM NOT_NAMED 1960-06-23 00:00:00 TS 22.0000 -95.3000 30 hurdat_atl main 211 205 O_____________ hurdat_atl AL011960 22.0000 -95.3000 TD 30 -1 15 338
1960174N19267 1960 31 NA GM NOT_NAMED 1960-06-23 03:00:00 TS 22.7499 -95.5652 main 213 203 P_____________ AL011960 22.7499 -95.5652 TD 32 -1 16 343
1960174N19267 1960 31 NA GM NOT_NAMED 1960-06-23 06:00:00 TS 23.5000 -95.8000 35 hurdat_atl main 203 177 O_____________ hurdat_atl AL011960 23.5000 -95.8000 TS 35 0 15 342
1960174N19267 1960 31 NA GM NOT_NAMED 1960-06-23 09:00:00 TS 24.1525 -96.0576 main 165 124 P_____________ AL011960 24.1525 -96.0576 TS 37 0 13 339
1960174N19267 1960 31 NA GM NOT_NAMED 1960-06-23 12:00:00 TS 24.7000 -96.3000 40 hurdat_atl main 124 87 O_____________ hurdat_atl AL011960 24.7000 -96.3000 TS 40 0 11 337
1960174N19267 1960 31 NA GM NOT_NAMED 1960-06-23 15:00:00 TS 25.1299 -96.5079 main 87 51 P_____________ AL011960 25.1299 -96.5079 TS 42 0 9 336
1960174N19267 1960 31 NA GM NOT_NAMED 1960-06-23 18:00:00 TS 25.5000 -96.7000 45 hurdat_atl main 51 22 O_____________ hurdat_atl AL011960 25.5000 -96.7000 TS 45 0 8 335
1960174N19267 1960 31 NA GM NOT_NAMED 1960-06-23 21:00:00 TS 25.8908 -96.8956 main 22 9 P_____________ AL011960 25.8908 -96.8956 TS 47 0 9 336
1960174N19267 1960 31 NA GM NOT_NAMED 1960-06-24 00:00:00 TS 26.3000 -97.1000 50 hurdat_atl main 19 9 O_____________ hurdat_atl AL011960 26.3000 -97.1000 TS 50 0 9 335
1960174N19267 1960 31 NA GM NOT_NAMED 1960-06-24 03:00:00 TS 26.7482 -97.3341 main 14 9 P_____________ AL011960 26.7482 -97.3341 TS 50 0 10 336
1960174N19267 1960 31 NA GM NOT_NAMED 1960-06-24 04:00:00 TS 26.9000 -97.4000 50 hurdat_atl main 9 0 O_____________ hurdat_atl AL011960 26.9000 -97.4000 L TS 50 0 10 342
1960174N19267 1960 31 NA NA NOT_NAMED 1960-06-24 06:00:00 TS 27.2000 -97.5000 45 1000 hurdat_atl main 0 0 O_____________ hurdat_atl AL011960 27.2000 -97.5000 TS 45 1000 0 10 342
1960174N19267 1960 31 NA NA NOT_NAMED 1960-06-24 09:00:00 TS 27.7013 -97.6947 main 0 0 P_____________ AL011960 27.7013 -97.6947 TS 40 1001 0 11 340
1960174N19267 1960 31 NA NA NOT_NAMED 1960-06-24 12:00:00 TS 28.2000 -97.9000 35 1002 hurdat_atl main 0 0 O_____________ hurdat_atl AL011960 28.2000 -97.9000 TS 35 1002 0 10 341
1960174N19267 1960 31 NA NA NOT_NAMED 1960-06-24 15:00:00 TS 28.6600 -98.0650 main 0 0 P_____________ AL011960 28.6600 -98.0650 TS 32 1002 -1 8 342
1960174N19267 1960 31 NA NA NOT_NAMED 1960-06-24 18:00:00 TS 29.0000 -98.2000 30 1003 hurdat_atl main 0 0 O_____________ hurdat_atl AL011960 29.0000 -98.2000 TD 30 1003 -1 6 338
1960174N19267 1960 31 NA NA NOT_NAMED 1960-06-24 21:00:00 TS 29.1975 -98.3151 main 0 0 P_____________ AL011960 29.1975 -98.3151 TD 30 1003 -1 3 319
1960174N19267 1960 31 NA NA NOT_NAMED 1960-06-25 00:00:00 TS 29.2000 -98.4000 30 1004 hurdat_atl main 0 0 O_____________ hurdat_atl AL011960 29.2000 -98.4000 TD 30 1004 -1 2 214
1960174N19267 1960 31 NA NA NOT_NAMED 1960-06-25 03:00:00 TS 28.9950 -98.4727 main 0 0 P_____________ AL011960 28.9950 -98.4727 TD 27 1004 -1 5 190
1960174N19267 1960 31 NA NA NOT_NAMED 1960-06-25 06:00:00 TS 28.7000 -98.5000 25 1005 hurdat_atl main 0 0 O_____________ hurdat_atl AL011960 28.7000 -98.5000 TD 25 1005 -1 6 0
1960174N19267 1960 31 NA NA NOT_NAMED 1960-06-25 09:00:00 TS 28.4325 -98.4723 main 0 0 P_____________ AL011960 28.4325 -98.4723 TD 25 1005 -1 4 168
1960174N19267 1960 31 NA NA NOT_NAMED 1960-06-25 12:00:00 TS 28.3000 -98.4000 25 1006 hurdat_atl main 0 0 O_____________ hurdat_atl AL011960 28.3000 -98.4000 TD 25 1006 -1 1 90
1960174N19267 1960 31 NA NA NOT_NAMED 1960-06-25 15:00:00 TS 28.4324 -98.3299 main 0 0 P_____________ AL011960 28.4324 -98.3299 TD 25 1006 -1 4 24
1960174N19267 1960 31 NA NA NOT_NAMED 1960-06-25 18:00:00 TS 28.7000 -98.2000 25 1006 hurdat_atl main 0 0 O_____________ hurdat_atl AL011960 28.7000 -98.2000 TD 25 1006 -1 6 33
1960174N19267 1960 31 NA NA NOT_NAMED 1960-06-25 21:00:00 TS 28.9201 -97.9724 main 0 0 P_____________ AL011960 28.9201 -97.9724 TD 25 1005 -1 7 41
1960174N19267 1960 31 NA NA NOT_NAMED 1960-06-26 00:00:00 TS 29.2000 -97.7000 25 1005 hurdat_atl main 0 0 O_____________ hurdat_atl AL011960 29.2000 -97.7000 TD 25 1005 -1 8 37
1960174N19267 1960 31 NA NA NOT_NAMED 1960-06-26 03:00:00 TS 29.5550 -97.4350 main 0 0 P_____________ AL011960 29.5550 -97.4350 TD 25 1005 -1 9 29
1960174N19267 1960 31 NA NA NOT_NAMED 1960-06-26 06:00:00 TS 30.0000 -97.2000 25 1006 hurdat_atl main 0 0 O_____________ hurdat_atl AL011960 30.0000 -97.2000 TD 25 1006 -1 10 19
1960174N19267 1960 31 NA NA NOT_NAMED 1960-06-26 09:00:00 TS 30.5199 -97.0421 main 0 0 P_____________ AL011960 30.5199 -97.0421 TD 25 1006 -1 11 13
1960174N19267 1960 31 NA NA NOT_NAMED 1960-06-26 12:00:00 TS 31.1000 -96.9000 25 1007 hurdat_atl main 0 0 O_____________ hurdat_atl AL011960 31.1000 -96.9000 TD 25 1007 -1 12 14
1960174N19267 1960 31 NA NA NOT_NAMED 1960-06-26 15:00:00 TS 31.7000 -96.7075 main 0 0 P_____________ AL011960 31.7000 -96.7075 TD 25 1007 -1 13 16
1960174N19267 1960 31 NA NA NOT_NAMED 1960-06-26 18:00:00 TS 32.3000 -96.5000 25 1008 hurdat_atl main 0 0 O_____________ hurdat_atl AL011960 32.3000 -96.5000 TD 25 1008 -1 12 15
1960174N19267 1960 31 NA NA NOT_NAMED 1960-06-26 21:00:00 TS 32.8421 -96.3510 main 0 0 P_____________ AL011960 32.8421 -96.3510 TD 22 1008 -1 12 17
1960174N19267 1960 31 NA NA NOT_NAMED 1960-06-27 00:00:00 TS 33.4000 -96.1000 20 1008 hurdat_atl main 0 0 O_____________ hurdat_atl AL011960 33.4000 -96.1000 TD 20 1008 -1 13 27
1960174N19267 1960 31 NA NA NOT_NAMED 1960-06-27 03:00:00 TS 34.0352 -95.6103 main 0 0 P_____________ AL011960 34.0352 -95.6103 TD 20 1008 -1 16 35
1960174N19267 1960 31 NA NA NOT_NAMED 1960-06-27 06:00:00 TS 34.7000 -95.0000 20 1009 hurdat_atl main 0 0 O_____________ hurdat_atl AL011960 34.7000 -95.0000 TD 20 1009 -1 17 37
1960174N19267 1960 31 NA NA NOT_NAMED 1960-06-27 09:00:00 TS 35.3649 -94.3997 main 0 0 P_____________ AL011960 35.3649 -94.3997 TD 20 1009 -1 16 37
1960174N19267 1960 31 NA NA NOT_NAMED 1960-06-27 12:00:00 TS 36.0000 -93.8000 20 1010 hurdat_atl main 0 0 O_____________ hurdat_atl AL011960 36.0000 -93.8000 TD 20 1010 -1 16 37
1960174N19267 1960 31 NA NA NOT_NAMED 1960-06-27 15:00:00 TS 36.6097 -93.2348 main 0 0 P_____________ AL011960 36.6097 -93.2348 TD 20 1010 -1 14 39
1960174N19267 1960 31 NA NA NOT_NAMED 1960-06-27 18:00:00 TS 37.1000 -92.7000 20 1011 hurdat_atl main 0 0 O_____________ hurdat_atl AL011960 37.1000 -92.7000 TD 20 1011 -1 11 46
1960174N19267 1960 31 NA NA NOT_NAMED 1960-06-27 21:00:00 TS 37.4020 -92.2062 main 0 0 P_____________ AL011960 37.4020 -92.2062 TD 20 1011 -1 9 58
1960174N19267 1960 31 NA NA NOT_NAMED 1960-06-28 00:00:00 TS 37.6000 -91.7000 20 1011 hurdat_atl main 0 0 O_____________ hurdat_atl AL011960 37.6000 -91.7000 TD 20 1011 -1 9 65
1960174N19267 1960 31 NA NA NOT_NAMED 1960-06-28 03:00:00 TS 37.7995 -91.1367 main 0 0 P_____________ AL011960 37.7995 -91.1367 TD 20 1011 -1 10 67
1960174N19267 1960 31 NA NA NOT_NAMED 1960-06-28 06:00:00 TS 38.0000 -90.5000 20 1012 hurdat_atl main 0 0 O_____________ hurdat_atl AL011960 38.0000 -90.5000 TD 20 1012 -1 12 68
1960174N19267 1960 31 NA NA NOT_NAMED 1960-06-28 09:00:00 TS 38.2387 -89.7765 main 0 0 P_____________ AL011960 38.2387 -89.7765 TD 20 1012 -1 13 67
1960174N19267 1960 31 NA NA NOT_NAMED 1960-06-28 12:00:00 TS 38.5000 -89.0000 20 1013 hurdat_atl main 0 O_____________ hurdat_atl AL011960 38.5000 -89.0000 TD 20 1013 -1 13 67

IBTrACS Databaseについて

本データベースは、米国NOAAが公開する1842年以降の世界の熱帯低気圧のベストトラックデータアーカイブInternational Best Track Archive for Climate Stewardship (IBTrACS)を、ウェブで閲覧しやすい形式に変換したものです。

最終更新日:2021-12-08